Current Weather

Porter County Rgnl

Valparaiso, Indiana (KVPZ)

Report from: Sunday, February 5, 2023 10:56 PM CST
Current time: Sunday, February 5, 2023 11:49 PM CST

Nearby weather
Weather history
Weather forecast

Temperature-0.6°C (30.9°F)
Wind chill-3.2°C (26.2°F)
Dew point-2.8°C (27.0°F)
Winds 4 kts (2.1 m/s, 4.6 mph) North-Northwest (340°)
Visibility8 mi. (12.9 km)
Clouds Sky clear
Altimeter30.14 in.Hg (1021 mB)
Relative humidity85 %
Density altitude-2,085 ft. (-635 m)
Sea-level pressure102.1 kPa (1021 mB, 30.16 in.Hg)
Remarks Fully automated report
System requires maintenance
Automated weather observing station with precipitation discriminator
Flight conditions Visual Meteorological Conditions
Raw dataKVPZ 060456Z AUTO 34004KT 8SM CLR M01/M03 A3014 RMK AO2 SLP213 T10061028 $
An error has occurred. This application may no longer respond until reloaded. Reload 🗙